sensor_id;sensor_type;location;lat;lon;timestamp;pressure;altitude;pressure_sealevel;temperature;humidity
14204;BME280;7185;51.854;6.622;2023-02-19T00:02:00;101412.38;;;11.47;100.00
14204;BME280;7185;51.854;6.622;2023-02-19T00:04:33;101413.16;;;11.60;100.00
14204;BME280;7185;51.854;6.622;2023-02-19T00:07:05;101412.41;;;11.46;100.00
14204;BME280;7185;51.854;6.622;2023-02-19T00:09:36;101405.31;;;11.53;100.00
14204;BME280;7185;51.854;6.622;2023-02-19T00:12:08;101399.09;;;11.64;100.00
14204;BME280;7185;51.854;6.622;2023-02-19T00:14:40;101407.97;;;11.51;100.00
14204;BME280;7185;51.854;6.622;2023-02-19T00:17:11;101404.41;;;11.57;100.00
14204;BME280;7185;51.854;6.622;2023-02-19T00:19:44;101400.06;;;11.56;100.00
14204;BME280;7185;51.854;6.622;2023-02-19T00:22:15;101400.88;;;11.59;100.00
14204;BME280;7185;51.854;6.622;2023-02-19T00:24:47;101409.72;;;11.49;100.00
14204;BME280;7185;51.854;6.622;2023-02-19T00:27:19;101403.63;;;11.47;100.00
14204;BME280;7185;51.854;6.622;2023-02-19T00:29:51;101412.38;;;11.47;100.00
14204;BME280;7185;51.854;6.622;2023-02-19T00:32:23;101401.88;;;11.47;100.00
14204;BME280;7185;51.854;6.622;2023-02-19T00:34:56;101413.28;;;11.45;100.00
14204;BME280;7185;51.854;6.622;2023-02-19T00:37:27;101411.50;;;11.45;100.00
14204;BME280;7185;51.854;6.622;2023-02-19T00:39:59;101403.75;;;11.33;100.00
14204;BME280;7185;51.854;6.622;2023-02-19T00:42:30;101394.09;;;11.38;100.00
14204;BME280;7185;51.854;6.622;2023-02-19T00:45:02;101397.53;;;11.42;100.00
14204;BME280;7185;51.854;6.622;2023-02-19T00:47:34;101398.38;;;11.48;100.00
14204;BME280;7185;51.854;6.622;2023-02-19T00:50:07;101397.50;;;11.46;100.00
14204;BME280;7185;51.854;6.622;2023-02-19T00:52:38;101403.63;;;11.45;100.00
14204;BME280;7185;51.854;6.622;2023-02-19T00:55:10;101396.75;;;11.32;100.00
14204;BME280;7185;51.854;6.622;2023-02-19T00:57:42;101397.50;;;11.48;100.00
14204;BME280;7185;51.854;6.622;2023-02-19T01:00:13;101401.00;;;11.45;100.00
14204;BME280;7185;51.854;6.622;2023-02-19T01:02:45;101396.50;;;11.60;100.00
14204;BME280;7185;51.854;6.622;2023-02-19T01:05:18;101403.63;;;11.45;100.00
14204;BME280;7185;51.854;6.622;2023-02-19T01:07:50;101400.28;;;11.31;100.00
14204;BME280;7185;51.854;6.622;2023-02-19T01:10:21;101405.50;;;11.34;100.00
14204;BME280;7185;51.854;6.622;2023-02-19T01:12:53;101395.84;;;11.36;100.00
14204;BME280;7185;51.854;6.622;2023-02-19T01:15:25;101401.25;;;11.16;100.00
14204;BME280;7185;51.854;6.622;2023-02-19T01:17:56;101396.72;;;11.35;100.00
14204;BME280;7185;51.854;6.622;2023-02-19T01:20:29;101395.00;;;11.34;100.00
14204;BME280;7185;51.854;6.622;2023-02-19T01:23:01;101403.81;;;11.27;100.00
14204;BME280;7185;51.854;6.622;2023-02-19T01:25:32;101402.00;;;11.35;100.00
14204;BME280;7185;51.854;6.622;2023-02-19T01:28:04;101401.28;;;11.11;100.00
14204;BME280;7185;51.854;6.622;2023-02-19T01:30:37;101409.13;;;11.18;100.00
14204;BME280;7185;51.854;6.622;2023-02-19T01:33:09;101408.19;;;11.26;100.00
14204;BME280;7185;51.854;6.622;2023-02-19T01:35:42;101410.84;;;11.22;100.00
14204;BME280;7185;51.854;6.622;2023-02-19T01:38:13;101416.19;;;11.08;100.00
14204;BME280;7185;51.854;6.622;2023-02-19T01:40:53;101414.50;;;11.02;100.00
14204;BME280;7185;51.854;6.622;2023-02-19T01:43:25;101410.84;;;11.22;100.00
14204;BME280;7185;51.854;6.622;2023-02-19T01:45:57;101411.81;;;11.07;100.00
14204;BME280;7185;51.854;6.622;2023-02-19T01:48:30;101417.97;;;11.07;100.00
14204;BME280;7185;51.854;6.622;2023-02-19T01:51:06;101403.91;;;11.11;100.00
14204;BME280;7185;51.854;6.622;2023-02-19T01:53:42;101414.44;;;11.08;100.00
14204;BME280;7185;51.854;6.622;2023-02-19T01:56:16;101422.44;;;10.91;100.00
14204;BME280;7185;51.854;6.622;2023-02-19T01:58:49;101414.50;;;10.99;100.00
14204;BME280;7185;51.854;6.622;2023-02-19T02:01:20;101418.00;;;11.01;100.00
14204;BME280;7185;51.854;6.622;2023-02-19T02:03:52;101417.13;;;10.99;100.00
14204;BME280;7185;51.854;6.622;2023-02-19T02:06:29;101418.00;;;11.01;100.00
14204;BME280;7185;51.854;6.622;2023-02-19T02:09:01;101414.50;;;11.02;100.00
14204;BME280;7185;51.854;6.622;2023-02-19T02:11:51;101418.97;;;10.88;100.00
14204;BME280;7185;51.854;6.622;2023-02-19T02:14:27;101420.75;;;10.79;100.00
14204;BME280;7185;51.854;6.622;2023-02-19T02:17:06;101415.53;;;10.76;100.00
14204;BME280;7185;51.854;6.622;2023-02-19T02:20:01;101417.31;;;10.74;100.00
14204;BME280;7185;51.854;6.622;2023-02-19T02:22:43;101408.53;;;10.77;100.00
14204;BME280;7185;51.854;6.622;2023-02-19T02:25:44;101412.91;;;10.75;100.00
14204;BME280;7185;51.854;6.622;2023-02-19T02:28:33;101414.69;;;10.74;100.00
14204;BME280;7185;51.854;6.622;2023-02-19T02:31:12;101416.34;;;10.84;100.00
14204;BME280;7185;51.854;6.622;2023-02-19T02:33:51;101411.09;;;10.84;100.00
14204;BME280;7185;51.854;6.622;2023-02-19T02:36:28;101411.09;;;10.86;100.00
14204;BME280;7185;51.854;6.622;2023-02-19T02:39:02;101418.19;;;10.70;100.00
14204;BME280;7185;51.854;6.622;2023-02-19T02:41:41;101422.56;;;10.74;100.00
14204;BME280;7185;51.854;6.622;2023-02-19T02:44:13;101419.88;;;10.77;100.00
14204;BME280;7185;51.854;6.622;2023-02-19T02:46:46;101423.34;;;10.89;100.00
14204;BME280;7185;51.854;6.622;2023-02-19T02:49:20;101420.69;;;10.90;100.00
14204;BME280;7185;51.854;6.622;2023-02-19T02:51:53;101425.09;;;10.87;100.00
14204;BME280;7185;51.854;6.622;2023-02-19T02:54:28;101433.00;;;10.79;100.00
14204;BME280;7185;51.854;6.622;2023-02-19T02:57:34;101425.13;;;10.85;100.00
14204;BME280;7185;51.854;6.622;2023-02-19T03:00:07;101426.88;;;10.80;100.00
14204;BME280;7185;51.854;6.622;2023-02-19T03:02:41;101428.59;;;10.86;100.00
14204;BME280;7185;51.854;6.622;2023-02-19T03:05:16;101437.34;;;10.80;100.00
14204;BME280;7185;51.854;6.622;2023-02-19T03:08:09;101440.03;;;10.77;100.00
14204;BME280;7185;51.854;6.622;2023-02-19T03:10:44;101444.41;;;10.70;100.00
14204;BME280;7185;51.854;6.622;2023-02-19T03:13:22;101447.94;;;10.63;100.00
14204;BME280;7185;51.854;6.622;2023-02-19T03:16:17;101451.34;;;10.82;100.00
14204;BME280;7185;51.854;6.622;2023-02-19T03:19:14;101445.31;;;10.71;100.00
14204;BME280;7185;51.854;6.622;2023-02-19T03:21:54;101448.78;;;10.68;100.00
14204;BME280;7185;51.854;6.622;2023-02-19T03:24:28;101458.34;;;10.81;100.00
14204;BME280;7185;51.854;6.622;2023-02-19T03:27:19;101461.03;;;10.71;100.00
14204;BME280;7185;51.854;6.622;2023-02-19T03:29:53;101460.16;;;10.70;100.00
14204;BME280;7185;51.854;6.622;2023-02-19T03:32:28;101465.34;;;10.79;100.00
14204;BME280;7185;51.854;6.622;2023-02-19T03:35:05;101468.88;;;10.69;100.00
14204;BME280;7185;51.854;6.622;2023-02-19T03:37:43;101465.41;;;10.70;100.00
14204;BME280;7185;51.854;6.622;2023-02-19T03:40:16;101472.38;;;10.68;100.00
14204;BME280;7185;51.854;6.622;2023-02-19T03:42:57;101469.78;;;10.70;100.00
14204;BME280;7185;51.854;6.622;2023-02-19T03:45:44;101468.84;;;10.78;100.00
14204;BME280;7185;51.854;6.622;2023-02-19T03:48:23;101480.22;;;10.79;100.00
14204;BME280;7185;51.854;6.622;2023-02-19T03:51:24;101474.16;;;10.63;100.00
14204;BME280;7185;51.854;6.622;2023-02-19T03:54:06;101474.22;;;10.52;100.00
14204;BME280;7185;51.854;6.622;2023-02-19T03:56:45;101472.47;;;10.52;100.00
14204;BME280;7185;51.854;6.622;2023-02-19T03:59:19;101482.91;;;10.62;100.00
14204;BME280;7185;51.854;6.622;2023-02-19T04:01:56;101491.66;;;10.67;100.00
14204;BME280;7185;51.854;6.622;2023-02-19T04:04:33;101493.41;;;10.62;100.00
14204;BME280;7185;51.854;6.622;2023-02-19T04:07:08;101495.16;;;10.63;100.00
14204;BME280;7185;51.854;6.622;2023-02-19T04:09:43;101502.13;;;10.73;100.00
14204;BME280;7185;51.854;6.622;2023-02-19T04:12:17;101512.56;;;10.79;100.00
14204;BME280;7185;51.854;6.622;2023-02-19T04:14:52;101509.06;;;10.77;100.00
14204;BME280;7185;51.854;6.622;2023-02-19T04:17:30;101516.09;;;10.69;100.00
14204;BME280;7185;51.854;6.622;2023-02-19T04:20:06;101524.00;;;10.63;100.00
14204;BME280;7185;51.854;6.622;2023-02-19T04:22:40;101518.75;;;10.58;100.00
14204;BME280;7185;51.854;6.622;2023-02-19T04:25:12;101523.13;;;10.61;100.00
14204;BME280;7185;51.854;6.622;2023-02-19T04:27:44;101520.53;;;10.56;100.00
14204;BME280;7185;51.854;6.622;2023-02-19T04:30:16;101525.72;;;10.75;100.00
14204;BME280;7185;51.854;6.622;2023-02-19T04:32:48;101520.47;;;10.73;100.00
14204;BME280;7185;51.854;6.622;2023-02-19T04:35:19;101524.88;;;10.62;100.00
14204;BME280;7185;51.854;6.622;2023-02-19T04:37:52;101524.88;;;10.65;100.00
14204;BME280;7185;51.854;6.622;2023-02-19T04:40:24;101526.63;;;10.66;100.00
14204;BME280;7185;51.854;6.622;2023-02-19T04:42:55;101529.22;;;10.64;100.00
14204;BME280;7185;51.854;6.622;2023-02-19T04:45:27;101523.19;;;10.45;100.00
14204;BME280;7185;51.854;6.622;2023-02-19T04:47:58;101534.47;;;10.67;100.00
14204;BME280;7185;51.854;6.622;2023-02-19T04:50:30;101541.50;;;10.58;100.00
14204;BME280;7185;51.854;6.622;2023-02-19T04:53:03;101529.25;;;10.58;100.00
14204;BME280;7185;51.854;6.622;2023-02-19T04:55:36;101538.91;;;10.51;100.00
14204;BME280;7185;51.854;6.622;2023-02-19T04:58:08;101548.50;;;10.57;100.00
14204;BME280;7185;51.854;6.622;2023-02-19T05:00:39;101546.75;;;10.53;100.00
14204;BME280;7185;51.854;6.622;2023-02-19T05:03:11;101550.19;;;10.69;100.00
14204;BME280;7185;51.854;6.622;2023-02-19T05:05:42;101551.16;;;10.52;100.00
14204;BME280;7185;51.854;6.622;2023-02-19T05:08:15;101563.38;;;10.60;100.00
14204;BME280;7185;51.854;6.622;2023-02-19T05:10:47;101563.38;;;10.50;100.00
14204;BME280;7185;51.854;6.622;2023-02-19T05:13:18;101569.53;;;10.37;100.00
14204;BME280;7185;51.854;6.622;2023-02-19T05:15:54;101577.34;;;10.59;100.00
14204;BME280;7185;51.854;6.622;2023-02-19T05:18:26;101575.59;;;10.55;100.00
14204;BME280;7185;51.854;6.622;2023-02-19T05:20:59;101576.44;;;10.64;100.00
14204;BME280;7185;51.854;6.622;2023-02-19T05:23:32;101578.22;;;10.58;100.00
14204;BME280;7185;51.854;6.622;2023-02-19T05:26:05;101579.06;;;10.69;100.00
14204;BME280;7185;51.854;6.622;2023-02-19T05:28:36;101591.28;;;10.70;100.00
14204;BME280;7185;51.854;6.622;2023-02-19T05:31:09;101584.38;;;10.54;100.00
14204;BME280;7185;51.854;6.622;2023-02-19T05:33:42;101583.44;;;10.59;100.00
14204;BME280;7185;51.854;6.622;2023-02-19T05:36:15;101587.84;;;10.56;100.00
14204;BME280;7185;51.854;6.622;2023-02-19T05:38:51;101586.09;;;10.48;100.00
14204;BME280;7185;51.854;6.622;2023-02-19T05:41:24;101589.59;;;10.54;100.00
14204;BME280;7185;51.854;6.622;2023-02-19T05:43:56;101582.59;;;10.49;100.00
14204;BME280;7185;51.854;6.622;2023-02-19T05:46:29;101591.38;;;10.45;100.00
14204;BME280;7185;51.854;6.622;2023-02-19T05:49:00;101596.63;;;10.41;100.00
14204;BME280;7185;51.854;6.622;2023-02-19T05:51:32;101601.00;;;10.37;100.00
14204;BME280;7185;51.854;6.622;2023-02-19T05:54:05;101600.09;;;10.44;100.00
14204;BME280;7185;51.854;6.622;2023-02-19T05:56:38;101611.47;;;10.39;100.00
14204;BME280;7185;51.854;6.622;2023-02-19T05:59:14;101610.56;;;10.32;100.00
14204;BME280;7185;51.854;6.622;2023-02-19T06:01:47;101609.72;;;10.41;100.00
14204;BME280;7185;51.854;6.622;2023-02-19T06:04:19;101607.97;;;10.54;100.00
14204;BME280;7185;51.854;6.622;2023-02-19T06:06:51;101615.78;;;10.63;100.00
14204;BME280;7185;51.854;6.622;2023-02-19T06:09:24;101609.69;;;10.56;100.00
14204;BME280;7185;51.854;6.622;2023-02-19T06:11:55;101609.72;;;10.42;100.00
14204;BME280;7185;51.854;6.622;2023-02-19T06:14:27;101615.81;;;10.57;100.00
14204;BME280;7185;51.854;6.622;2023-02-19T06:16:58;101618.44;;;10.49;100.00
14204;BME280;7185;51.854;6.622;2023-02-19T06:19:30;101620.19;;;10.48;100.00
14204;BME280;7185;51.854;6.622;2023-02-19T06:22:02;101641.16;;;10.62;100.00
14204;BME280;7185;51.854;6.622;2023-02-19T06:24:35;101644.66;;;10.57;100.00
14204;BME280;7185;51.854;6.622;2023-02-19T06:27:07;101638.56;;;10.51;100.00
14204;BME280;7185;51.854;6.622;2023-02-19T06:29:39;101641.16;;;10.36;100.00
14204;BME280;7185;51.854;6.622;2023-02-19T06:32:11;101640.31;;;10.43;100.00
14204;BME280;7185;51.854;6.622;2023-02-19T06:34:42;101655.16;;;10.52;100.00
14204;BME280;7185;51.854;6.622;2023-02-19T06:37:14;101654.28;;;10.51;100.00
14204;BME280;7185;51.854;6.622;2023-02-19T06:39:47;101662.13;;;10.48;100.00
14204;BME280;7185;51.854;6.622;2023-02-19T06:42:20;101670.00;;;10.55;100.00
14204;BME280;7185;51.854;6.622;2023-02-19T06:44:51;101670.00;;;10.55;100.00
14204;BME280;7185;51.854;6.622;2023-02-19T06:47:23;101677.00;;;10.52;100.00
14204;BME280;7185;51.854;6.622;2023-02-19T06:49:54;101690.09;;;10.56;100.00
14204;BME280;7185;51.854;6.622;2023-02-19T06:52:26;101689.25;;;10.60;100.00
14204;BME280;7185;51.854;6.622;2023-02-19T06:54:59;101695.34;;;10.40;100.00
14204;BME280;7185;51.854;6.622;2023-02-19T06:57:31;101692.72;;;10.62;100.00
14204;BME280;7185;51.854;6.622;2023-02-19T07:00:03;101698.84;;;10.61;100.00
14204;BME280;7185;51.854;6.622;2023-02-19T07:02:35;101714.56;;;10.65;100.00
14204;BME280;7185;51.854;6.622;2023-02-19T07:05:06;101708.47;;;10.63;100.00
14204;BME280;7185;51.854;6.622;2023-02-19T07:07:38;101703.22;;;10.40;100.00
14204;BME280;7185;51.854;6.622;2023-02-19T07:10:11;101711.06;;;10.51;100.00
14204;BME280;7185;51.854;6.622;2023-02-19T07:12:42;101719.84;;;10.67;100.00
14204;BME280;7185;51.854;6.622;2023-02-19T07:15:14;101725.94;;;10.47;100.00
14204;BME280;7185;51.854;6.622;2023-02-19T07:17:46;101725.06;;;10.68;100.00
14204;BME280;7185;51.854;6.622;2023-02-19T07:20:18;101725.06;;;10.64;100.00
14204;BME280;7185;51.854;6.622;2023-02-19T07:22:50;101728.56;;;10.52;100.00
14204;BME280;7185;51.854;6.622;2023-02-19T07:25:23;101738.19;;;10.51;100.00
14204;BME280;7185;51.854;6.622;2023-02-19T07:27:54;101749.56;;;10.60;100.00
14204;BME280;7185;51.854;6.622;2023-02-19T07:30:26;101748.66;;;10.44;100.00
14204;BME280;7185;51.854;6.622;2023-02-19T07:32:57;101753.91;;;10.58;100.00
14204;BME280;7185;51.854;6.622;2023-02-19T07:35:29;101758.31;;;10.57;100.00
14204;BME280;7185;51.854;6.622;2023-02-19T07:38:01;101749.53;;;10.47;100.00
14204;BME280;7185;51.854;6.622;2023-02-19T07:40:34;101760.03;;;10.57;100.00
14204;BME280;7185;51.854;6.622;2023-02-19T07:43:06;101760.03;;;10.74;100.00
14204;BME280;7185;51.854;6.622;2023-02-19T07:45:37;101764.41;;;10.48;100.00
14204;BME280;7185;51.854;6.622;2023-02-19T07:48:09;101780.16;;;10.64;100.00
14204;BME280;7185;51.854;6.622;2023-02-19T07:50:40;101782.75;;;10.76;100.00
14204;BME280;7185;51.854;6.622;2023-02-19T07:53:12;101783.66;;;10.77;100.00
14204;BME280;7185;51.854;6.622;2023-02-19T07:55:45;101793.25;;;10.81;100.00
14204;BME280;7185;51.854;6.622;2023-02-19T07:58:17;101792.41;;;10.85;100.00
14204;BME280;7185;51.854;6.622;2023-02-19T08:00:49;101785.41;;;10.89;100.00
14204;BME280;7185;51.854;6.622;2023-02-19T08:03:20;101794.16;;;10.78;100.00
14204;BME280;7185;51.854;6.622;2023-02-19T08:05:51;101795.88;;;10.76;100.00
14204;BME280;7185;51.854;6.622;2023-02-19T08:08:24;101804.66;;;10.81;100.00
14204;BME280;7185;51.854;6.622;2023-02-19T08:11:00;101799.38;;;10.84;100.00
14204;BME280;7185;51.854;6.622;2023-02-19T08:13:50;101797.63;;;10.68;100.00
14204;BME280;7185;51.854;6.622;2023-02-19T08:16:21;101800.25;;;10.79;100.00
14204;BME280;7185;51.854;6.622;2023-02-19T08:18:53;101803.75;;;10.70;100.00
14204;BME280;7185;51.854;6.622;2023-02-19T08:21:25;101802.88;;;10.76;100.00
14204;BME280;7185;51.854;6.622;2023-02-19T08:23:57;101808.16;;;10.96;100.00
14204;BME280;7185;51.854;6.622;2023-02-19T08:26:31;101810.75;;;10.90;100.00
14204;BME280;7185;51.854;6.622;2023-02-19T08:29:03;101811.63;;;10.82;100.00
14204;BME280;7185;51.854;6.622;2023-02-19T08:31:35;101809.03;;;10.95;100.00
14204;BME280;7185;51.854;6.622;2023-02-19T08:34:06;101816.00;;;10.97;100.00
14204;BME280;7185;51.854;6.622;2023-02-19T08:36:38;101815.13;;;10.94;100.00
14204;BME280;7185;51.854;6.622;2023-02-19T08:39:10;101820.38;;;10.72;100.00
14204;BME280;7185;51.854;6.622;2023-02-19T08:41:43;101820.38;;;10.84;100.00
14204;BME280;7185;51.854;6.622;2023-02-19T08:44:14;101823.88;;;10.87;100.00
14204;BME280;7185;51.854;6.622;2023-02-19T08:46:46;101829.13;;;10.87;100.00
14204;BME280;7185;51.854;6.622;2023-02-19T08:49:17;101839.59;;;10.77;100.00
14204;BME280;7185;51.854;6.622;2023-02-19T08:51:49;101840.50;;;10.86;100.00
14204;BME280;7185;51.854;6.622;2023-02-19T08:54:20;101843.13;;;10.98;100.00
14204;BME280;7185;51.854;6.622;2023-02-19T08:56:53;101850.09;;;10.90;100.00
14204;BME280;7185;51.854;6.622;2023-02-19T08:59:27;101863.22;;;10.70;100.00
14204;BME280;7185;51.854;6.622;2023-02-19T09:01:59;101863.22;;;10.90;100.00
14204;BME280;7185;51.854;6.622;2023-02-19T09:04:31;101874.63;;;10.95;100.00
14204;BME280;7185;51.854;6.622;2023-02-19T09:07:03;101882.47;;;10.81;100.00
14204;BME280;7185;51.854;6.622;2023-02-19T09:09:37;101885.97;;;10.86;100.00
14204;BME280;7185;51.854;6.622;2023-02-19T09:12:11;101889.47;;;10.76;100.00
14204;BME280;7185;51.854;6.622;2023-02-19T09:14:42;101888.56;;;10.75;100.00
14204;BME280;7185;51.854;6.622;2023-02-19T09:17:14;101886.84;;;10.83;100.00
14204;BME280;7185;51.854;6.622;2023-02-19T09:19:46;101883.34;;;11.19;100.00
14204;BME280;7185;51.854;6.622;2023-02-19T09:22:17;101879.00;;;11.21;100.00
14204;BME280;7185;51.854;6.622;2023-02-19T09:24:49;101888.59;;;11.25;100.00
14204;BME280;7185;51.854;6.622;2023-02-19T09:27:22;101886.88;;;11.24;100.00
14204;BME280;7185;51.854;6.622;2023-02-19T09:29:54;101890.38;;;11.16;100.00
14204;BME280;7185;51.854;6.622;2023-02-19T09:32:25;101889.50;;;11.24;100.00
14204;BME280;7185;51.854;6.622;2023-02-19T09:35:00;101901.72;;;11.59;100.00
14204;BME280;7185;51.854;6.622;2023-02-19T09:37:31;101892.97;;;11.61;100.00
14204;BME280;7185;51.854;6.622;2023-02-19T09:40:03;101906.94;;;11.73;100.00
14204;BME280;7185;51.854;6.622;2023-02-19T09:42:39;101911.28;;;11.85;100.00
14204;BME280;7185;51.854;6.622;2023-02-19T09:45:16;101914.78;;;11.80;100.00
14204;BME280;7185;51.854;6.622;2023-02-19T09:47:53;101914.84;;;11.71;100.00
14204;BME280;7185;51.854;6.622;2023-02-19T09:50:31;101925.34;;;11.76;100.00
14204;BME280;7185;51.854;6.622;2023-02-19T09:53:11;101921.81;;;11.75;100.00
14204;BME280;7185;51.854;6.622;2023-02-19T09:55:45;101937.59;;;11.58;100.00
14204;BME280;7185;51.854;6.622;2023-02-19T09:58:22;101965.63;;;11.70;100.00
14204;BME280;7185;51.854;6.622;2023-02-19T10:00:58;101966.50;;;11.64;100.00
14204;BME280;7185;51.854;6.622;2023-02-19T10:03:33;101963.88;;;11.13;100.00
14204;BME280;7185;51.854;6.622;2023-02-19T10:06:14;101965.59;;;11.04;100.00
14204;BME280;7185;51.854;6.622;2023-02-19T10:08:50;101964.75;;;11.34;100.00
14204;BME280;7185;51.854;6.622;2023-02-19T10:11:24;101975.25;;;11.39;100.00
14204;BME280;7185;51.854;6.622;2023-02-19T10:14:07;101980.50;;;11.51;100.00
14204;BME280;7185;51.854;6.622;2023-02-19T10:16:44;101988.41;;;11.56;100.00
14204;BME280;7185;51.854;6.622;2023-02-19T10:19:16;101983.13;;;11.68;100.00
14204;BME280;7185;51.854;6.622;2023-02-19T10:21:48;101992.78;;;11.52;100.00
14204;BME280;7185;51.854;6.622;2023-02-19T10:24:24;101998.91;;;11.59;100.00
14204;BME280;7185;51.854;6.622;2023-02-19T10:26:57;101985.75;;;11.62;100.00
14204;BME280;7185;51.854;6.622;2023-02-19T10:29:30;101988.41;;;11.56;100.00
14204;BME280;7185;51.854;6.622;2023-02-19T10:32:12;101985.78;;;11.59;100.00
14204;BME280;7185;51.854;6.622;2023-02-19T10:34:46;102005.03;;;11.69;100.00
14204;BME280;7185;51.854;6.622;2023-02-19T10:37:18;102011.16;;;11.63;100.00
14204;BME280;7185;51.854;6.622;2023-02-19T10:39:50;102006.78;;;11.70;100.00
14204;BME280;7185;51.854;6.622;2023-02-19T10:42:22;102015.56;;;11.97;100.00
14204;BME280;7185;51.854;6.622;2023-02-19T10:44:58;102010.25;;;11.89;100.00
14204;BME280;7185;51.854;6.622;2023-02-19T10:47:32;102021.69;;;11.72;100.00
14204;BME280;7185;51.854;6.622;2023-02-19T10:50:05;102026.03;;;11.55;100.00
14204;BME280;7185;51.854;6.622;2023-02-19T10:52:38;102046.16;;;11.37;100.00
14204;BME280;7185;51.854;6.622;2023-02-19T10:55:15;102053.16;;;11.29;100.00
14204;BME280;7185;51.854;6.622;2023-02-19T10:57:54;102061.00;;;11.16;100.00
14204;BME280;7185;51.854;6.622;2023-02-19T11:00:28;102065.34;;;11.11;100.00
14204;BME280;7185;51.854;6.622;2023-02-19T11:03:21;102061.84;;;11.06;100.00
14204;BME280;7185;51.854;6.622;2023-02-19T11:05:58;102077.50;;;10.84;100.00
14204;BME280;7185;51.854;6.622;2023-02-19T11:08:39;102071.44;;;10.98;100.00
14204;BME280;7185;51.854;6.622;2023-02-19T11:11:30;102068.75;;;10.86;100.00
14204;BME280;7185;51.854;6.622;2023-02-19T11:14:10;102064.41;;;10.88;100.00
14204;BME280;7185;51.854;6.622;2023-02-19T11:16:46;102069.69;;;11.00;100.00
14204;BME280;7185;51.854;6.622;2023-02-19T11:19:23;102073.13;;;10.90;100.00
14204;BME280;7185;51.854;6.622;2023-02-19T11:21:57;102074.03;;;10.89;100.00
14204;BME280;7185;51.854;6.622;2023-02-19T11:24:31;102068.81;;;10.98;100.00
14204;BME280;7185;51.854;6.622;2023-02-19T11:27:06;102060.09;;;11.08;100.00
14204;BME280;7185;51.854;6.622;2023-02-19T11:29:44;102041.72;;;11.10;100.00
14204;BME280;7185;51.854;6.622;2023-02-19T11:32:29;102051.38;;;11.15;100.00
14204;BME280;7185;51.854;6.622;2023-02-19T11:35:14;102054.00;;;11.22;100.00
14204;BME280;7185;51.854;6.622;2023-02-19T11:37:55;102053.16;;;11.23;100.00
14204;BME280;7185;51.854;6.622;2023-02-19T11:40:38;102061.91;;;11.28;100.00
14204;BME280;7185;51.854;6.622;2023-02-19T11:43:22;102064.53;;;11.31;100.00
14204;BME280;7185;51.854;6.622;2023-02-19T11:46:02;102058.41;;;11.32;100.00
14204;BME280;7185;51.854;6.622;2023-02-19T11:48:48;102062.75;;;11.28;100.00
14204;BME280;7185;51.854;6.622;2023-02-19T11:51:39;102066.25;;;11.18;100.00
14204;BME280;7185;51.854;6.622;2023-02-19T11:54:24;102070.59;;;11.18;100.00
14204;BME280;7185;51.854;6.622;2023-02-19T11:57:03;102076.72;;;11.06;100.00
14204;BME280;7185;51.854;6.622;2023-02-19T11:59:44;102081.06;;;11.07;100.00
14204;BME280;7185;51.854;6.622;2023-02-19T12:02:26;102090.69;;;11.03;100.00
14204;BME280;7185;51.854;6.622;2023-02-19T12:05:18;102074.13;;;11.16;100.00
14204;BME280;7185;51.854;6.622;2023-02-19T12:08:19;102078.47;;;11.08;100.00
14204;BME280;7185;51.854;6.622;2023-02-19T12:11:10;102087.22;;;11.07;100.00
14204;BME280;7185;51.854;6.622;2023-02-19T12:14:03;102081.13;;;11.14;100.00
14204;BME280;7185;51.854;6.622;2023-02-19T12:16:51;102090.59;;;10.78;100.00
14204;BME280;7185;51.854;6.622;2023-02-19T12:19:36;102087.13;;;10.84;100.00
14204;BME280;7185;51.854;6.622;2023-02-19T12:22:23;102092.44;;;10.95;100.00
14204;BME280;7185;51.854;6.622;2023-02-19T12:25:22;102088.97;;;11.02;100.00
14204;BME280;7185;51.854;6.622;2023-02-19T12:28:17;102093.31;;;11.03;100.00
14204;BME280;7185;51.854;6.622;2023-02-19T12:31:13;102099.34;;;10.83;100.00
14204;BME280;7185;51.854;6.622;2023-02-19T12:34:06;102093.19;;;10.75;100.00
14204;BME280;7185;51.854;6.622;2023-02-19T12:36:47;102091.50;;;10.85;100.00
14204;BME280;7185;51.854;6.622;2023-02-19T12:39:31;102095.94;;;11.00;100.00
14204;BME280;7185;51.854;6.622;2023-02-19T12:42:16;102088.94;;;11.05;100.00
14204;BME280;7185;51.854;6.622;2023-02-19T12:44:54;102086.34;;;11.18;100.00
14204;BME280;7185;51.854;6.622;2023-02-19T12:47:41;102084.59;;;11.13;100.00
14204;BME280;7185;51.854;6.622;2023-02-19T12:50:20;102085.56;;;11.37;100.00
14204;BME280;7185;51.854;6.622;2023-02-19T12:53:03;102085.50;;;11.19;100.00
14204;BME280;7185;51.854;6.622;2023-02-19T12:55:50;102084.66;;;11.23;100.00
14204;BME280;7185;51.854;6.622;2023-02-19T12:58:27;102098.41;;;10.69;100.00
14204;BME280;7185;51.854;6.622;2023-02-19T13:01:01;102095.03;;;10.98;100.00
14204;BME280;7185;51.854;6.622;2023-02-19T13:03:38;102093.38;;;11.09;100.00
14204;BME280;7185;51.854;6.622;2023-02-19T13:06:21;102096.84;;;11.11;100.00
14204;BME280;7185;51.854;6.622;2023-02-19T13:08:57;102098.59;;;11.12;100.00
14204;BME280;7185;51.854;6.622;2023-02-19T13:11:36;102105.59;;;11.10;100.00
14204;BME280;7185;51.854;6.622;2023-02-19T13:14:15;102104.72;;;11.11;100.00
14204;BME280;7185;51.854;6.622;2023-02-19T13:16:52;102109.09;;;11.12;100.00
14204;BME280;7185;51.854;6.622;2023-02-19T13:19:26;102109.09;;;11.12;100.00
14204;BME280;7185;51.854;6.622;2023-02-19T13:22:03;102123.09;;;11.08;100.00
14204;BME280;7185;51.854;6.622;2023-02-19T13:24:55;102130.09;;;11.09;100.00
14204;BME280;7185;51.854;6.622;2023-02-19T13:27:41;102133.63;;;11.14;100.00
14204;BME280;7185;51.854;6.622;2023-02-19T13:30:29;102141.44;;;11.07;100.00
14204;BME280;7185;51.854;6.622;2023-02-19T13:33:14;102141.47;;;11.10;100.00
14204;BME280;7185;51.854;6.622;2023-02-19T13:36:09;102135.31;;;11.03;100.00